Time;durP1;ratioP1;P1;durP2;ratioP2;P2;SDS_P1;SDS_P2;PMS_P1;PMS_P2;Temp;Humidity;BMP_temperature;BMP_pressure;BME280_temperature;BME280_humidity;BME280_pressure;Samples;Min_cycle;Max_cycle;Signal;HPM_P1;HPM_P2
2024/03/12 00:00:20;;;;;;;3.53;1.97;;;;;;;19.55;50.19;96905.97;5002811;28;20315;-25
2024/03/12 00:02:47;;;;;;;2.23;1.83;;;;;;;19.53;50.23;96901.63;5010292;28;20379;-25
2024/03/12 00:05:15;;;;;;;3.73;1.73;;;;;;;19.54;50.20;96911.88;5004447;28;20202;-26
2024/03/12 00:07:42;;;;;;;2.33;1.70;;;;;;;19.54;50.11;96914.44;5004880;28;20202;-25
2024/03/12 00:10:14;;;;;;;1.87;1.77;;;;;;;19.52;50.34;96911.00;5010445;28;20246;-25
2024/03/12 00:12:47;;;;;;;1.83;1.70;;;;;;;19.53;50.16;96912.72;5003351;28;20234;-27
2024/03/12 00:15:18;;;;;;;2.73;1.77;;;;;;;19.53;50.15;96909.28;4998298;28;20731;-25
2024/03/12 00:17:44;;;;;;;2.27;1.70;;;;;;;19.54;50.32;96905.94;5009043;28;20233;-26
2024/03/12 00:20:33;;;;;;;2.27;1.60;;;;;;;19.54;50.16;96908.50;5010223;28;20229;-25
2024/03/12 00:22:59;;;;;;;1.67;1.53;;;;;;;19.53;50.17;96915.25;5003072;28;20195;-25
2024/03/12 00:25:26;;;;;;;4.43;1.67;;;;;;;19.54;50.29;96916.13;5013004;28;20198;-26
2024/03/12 00:27:55;;;;;;;5.00;2.00;;;;;;;19.54;50.19;96913.59;5010000;28;20198;-25
2024/03/12 00:30:25;;;;;;;2.60;1.60;;;;;;;19.53;50.38;96919.47;5012810;28;20227;-26
2024/03/12 00:32:54;;;;;;;2.70;1.77;;;;;;;19.53;50.26;96917.81;5005398;28;20203;-26
2024/03/12 00:35:23;;;;;;;1.90;1.60;;;;;;;19.53;50.25;96919.47;5012626;28;20226;-26
2024/03/12 00:37:51;;;;;;;2.03;1.60;;;;;;;19.55;50.15;96920.41;5014943;28;20237;-27
2024/03/12 00:40:19;;;;;;;2.67;1.70;;;;;;;19.53;50.14;96925.44;5013090;28;20222;-25
2024/03/12 00:42:47;;;;;;;2.00;1.67;;;;;;;19.55;50.42;96926.38;5012235;28;20198;-25
2024/03/12 00:45:13;;;;;;;1.97;1.77;;;;;;;19.55;50.38;96928.91;5012811;28;20512;-25
2024/03/12 00:47:40;;;;;;;1.70;1.60;;;;;;;19.55;50.36;96934.00;5012183;28;20198;-25
2024/03/12 00:50:14;;;;;;;2.47;1.80;;;;;;;19.55;50.38;96948.44;5010161;28;20229;-25
2024/03/12 00:52:41;;;;;;;1.40;1.30;;;;;;;19.49;50.41;96936.41;5010440;28;20199;-25
2024/03/12 00:55:16;;;;;;;1.70;1.50;;;;;;;19.55;50.39;96948.44;5012195;28;20649;-25
2024/03/12 00:57:43;;;;;;;4.37;1.87;;;;;;;19.54;50.43;96950.09;5011923;28;20289;-25
2024/03/12 01:00:16;;;;;;;2.83;1.70;;;;;;;19.53;50.29;96956.03;5014364;28;20670;-25
2024/03/12 01:02:48;;;;;;;1.87;1.70;;;;;;;19.54;50.29;96957.75;5007415;28;20256;-25
2024/03/12 01:05:24;;;;;;;1.73;1.63;;;;;;;19.54;50.32;96959.47;5011438;28;20290;-25
2024/03/12 01:07:54;;;;;;;1.83;1.70;;;;;;;19.53;50.38;96958.59;5011845;28;20681;-25
2024/03/12 01:10:21;;;;;;;2.20;1.70;;;;;;;19.53;50.43;96961.13;5011178;28;20598;-25
2024/03/12 01:12:53;;;;;;;1.93;1.73;;;;;;;19.54;50.35;96964.56;5012479;28;20198;-25
2024/03/12 01:15:20;;;;;;;1.80;1.63;;;;;;;19.54;50.32;96964.56;5014173;28;20570;-25
2024/03/12 01:17:47;;;;;;;1.60;1.50;;;;;;;19.54;50.11;96960.31;5014177;28;20229;-25
2024/03/12 01:20:19;;;;;;;1.87;1.70;;;;;;;19.54;50.35;96956.91;5003913;28;20317;-25
2024/03/12 01:22:45;;;;;;;2.67;1.90;;;;;;;19.55;50.62;96963.72;5011929;28;20281;-25
2024/03/12 01:25:12;;;;;;;1.90;1.47;;;;;;;19.55;50.30;96964.59;5011495;28;20217;-25
2024/03/12 01:27:39;;;;;;;2.43;1.70;;;;;;;19.56;50.48;96968.00;5011295;28;20826;-25
2024/03/12 01:30:07;;;;;;;2.10;1.90;;;;;;;19.56;50.57;96965.44;5012505;28;20264;-27
2024/03/12 01:32:34;;;;;;;2.00;1.70;;;;;;;19.57;50.46;96967.19;5014232;28;20571;-25
2024/03/12 01:35:04;;;;;;;1.70;1.60;;;;;;;19.56;50.55;96968.00;5011498;28;20696;-25
2024/03/12 01:37:31;;;;;;;2.43;1.50;;;;;;;19.56;50.56;96960.34;5011274;28;20253;-25
2024/03/12 01:39:57;;;;;;;1.77;1.60;;;;;;;19.54;50.55;96967.94;5007085;28;20673;-25
2024/03/12 01:42:24;;;;;;;1.73;1.60;;;;;;;19.53;50.26;96960.25;5010535;28;20238;-25
2024/03/12 01:44:51;;;;;;;1.93;1.80;;;;;;;19.55;50.36;96962.06;5010254;28;20230;-26
2024/03/12 01:47:18;;;;;;;1.60;1.50;;;;;;;19.55;50.46;96962.06;5010631;28;20761;-25
2024/03/12 01:49:48;;;;;;;1.60;1.50;;;;;;;19.55;50.54;96966.28;5017338;28;20248;-25
2024/03/12 01:52:22;;;;;;;1.57;1.47;;;;;;;19.49;50.53;96958.44;5008246;28;20207;-26
2024/03/12 01:54:50;;;;;;;1.83;1.73;;;;;;;19.55;50.31;96974.78;4993415;28;20681;-25
2024/03/12 01:57:17;;;;;;;1.50;1.40;;;;;;;19.56;50.48;96979.06;5013922;28;20218;-26
2024/03/12 01:59:44;;;;;;;2.00;1.80;;;;;;;19.55;50.51;96979.00;5003428;28;20213;-25
2024/03/12 02:02:17;;;;;;;1.57;1.47;;;;;;;19.55;50.42;96977.34;5025939;28;20230;-25
2024/03/12 02:04:44;;;;;;;1.63;1.50;;;;;;;19.56;50.29;96988.38;5008323;28;20253;-25
2024/03/12 02:07:11;;;;;;;1.60;1.50;;;;;;;19.56;50.41;96983.28;5009971;28;20289;-25
2024/03/12 02:09:38;;;;;;;1.63;1.53;;;;;;;19.57;50.28;96990.97;5011151;28;20198;-25
2024/03/12 02:12:05;;;;;;;1.67;1.57;;;;;;;19.58;50.45;96991.84;5008744;28;20218;-25
2024/03/12 02:14:32;;;;;;;1.70;1.30;;;;;;;19.58;50.63;96995.28;5012776;28;20207;-27
2024/03/12 02:16:59;;;;;;;1.70;1.60;;;;;;;19.56;50.62;97001.13;5006853;28;20222;-25
2024/03/12 02:19:26;;;;;;;1.67;1.57;;;;;;;19.57;50.65;97007.97;5009677;28;20207;-26
2024/03/12 02:21:53;;;;;;;2.10;1.70;;;;;;;19.58;50.63;97017.34;5006230;28;20218;-26
2024/03/12 02:24:19;;;;;;;3.27;1.70;;;;;;;19.57;50.89;97015.63;5005770;28;20206;-26
2024/03/12 02:26:46;;;;;;;1.70;1.60;;;;;;;19.57;50.55;97021.56;5012714;28;20492;-25
2024/03/12 02:29:13;;;;;;;1.60;1.40;;;;;;;19.56;50.56;97021.50;5011323;28;20622;-25
2024/03/12 02:31:39;;;;;;;1.87;1.60;;;;;;;19.57;50.62;97020.72;5009546;28;20596;-25
2024/03/12 02:34:06;;;;;;;2.17;1.63;;;;;;;19.56;50.68;97035.13;5012005;28;20199;-25
2024/03/12 02:36:36;;;;;;;1.50;1.40;;;;;;;19.57;50.55;97036.00;5008175;28;20222;-32
2024/03/12 02:39:04;;;;;;;2.27;1.40;;;;;;;19.56;50.42;97036.81;5003777;28;20202;-25
2024/03/12 02:41:31;;;;;;;1.53;1.43;;;;;;;19.55;50.39;97040.19;5009350;28;20305;-25
2024/03/12 02:43:57;;;;;;;1.57;1.47;;;;;;;19.55;50.56;97046.16;5011282;28;20209;-28
2024/03/12 02:46:24;;;;;;;1.70;1.60;;;;;;;19.56;50.48;97047.00;5004557;28;20277;-26
2024/03/12 02:48:51;;;;;;;1.90;1.57;;;;;;;19.56;50.50;97045.31;5007828;28;20209;-25
2024/03/12 02:51:18;;;;;;;1.83;1.50;;;;;;;19.55;50.48;97048.69;5010875;28;20222;-25
2024/03/12 02:53:44;;;;;;;1.40;1.30;;;;;;;19.57;50.36;97048.75;5011459;28;20274;-25
2024/03/12 02:56:12;;;;;;;1.60;1.50;;;;;;;19.55;50.54;97047.81;5009564;28;20247;-25
2024/03/12 02:58:38;;;;;;;1.87;1.60;;;;;;;19.56;50.62;97052.97;5005917;28;20206;-25
2024/03/12 03:01:05;;;;;;;1.73;1.53;;;;;;;19.56;50.64;97058.06;5012231;28;20229;-25
2024/03/12 03:03:33;;;;;;;1.50;1.40;;;;;;;19.55;50.98;97052.94;5007763;28;20210;-25
2024/03/12 03:06:00;;;;;;;1.70;1.60;;;;;;;19.54;50.64;97054.59;5005372;28;20726;-25
2024/03/12 03:08:29;;;;;;;1.60;1.50;;;;;;;19.55;50.58;97055.47;5008691;28;20211;-25
2024/03/12 03:10:56;;;;;;;1.70;1.60;;;;;;;19.54;50.77;97067.34;5004615;28;20225;-25
2024/03/12 03:13:22;;;;;;;1.70;1.60;;;;;;;19.54;50.57;97064.78;5012315;28;20252;-28
2024/03/12 03:15:49;;;;;;;2.10;1.57;;;;;;;19.54;50.40;97062.25;5000429;28;20650;-26
2024/03/12 03:18:16;;;;;;;1.53;1.40;;;;;;;19.54;50.93;97063.94;5012429;28;20205;-25
2024/03/12 03:20:42;;;;;;;1.60;1.50;;;;;;;19.54;50.76;97072.44;5009235;28;20260;-27
2024/03/12 03:23:09;;;;;;;1.97;1.77;;;;;;;19.54;50.69;97069.06;5005300;28;20261;-25
2024/03/12 03:25:36;;;;;;;1.73;1.63;;;;;;;19.54;50.63;97072.44;5011928;28;20245;-25
2024/03/12 03:28:04;;;;;;;1.70;1.60;;;;;;;19.52;50.16;97073.22;5010717;28;20268;-25
2024/03/12 03:30:31;;;;;;;1.67;1.57;;;;;;;19.54;50.59;97074.16;5008603;28;20229;-30
2024/03/12 03:32:58;;;;;;;1.80;1.70;;;;;;;19.52;50.52;97071.56;5003281;28;20206;-25
2024/03/12 03:35:25;;;;;;;1.70;1.60;;;;;;;19.55;50.71;97075.88;5006869;28;20213;-26
2024/03/12 03:37:52;;;;;;;1.50;1.40;;;;;;;19.55;50.51;97069.09;5011787;28;20321;-25
2024/03/12 03:40:22;;;;;;;1.40;1.30;;;;;;;19.54;50.65;97064.78;5009564;28;20646;-25
2024/03/12 03:42:52;;;;;;;1.50;1.40;;;;;;;19.55;50.63;97068.22;5010421;28;20238;-26
2024/03/12 03:45:19;;;;;;;1.70;1.60;;;;;;;19.55;50.67;97076.75;5011933;28;20202;-25
2024/03/12 03:47:46;;;;;;;1.37;1.27;;;;;;;19.56;50.48;97075.03;5010542;28;20198;-28
2024/03/12 03:50:12;;;;;;;1.97;1.50;;;;;;;19.50;50.77;97070.63;5007044;28;20218;-25
2024/03/12 03:52:40;;;;;;;1.50;1.40;;;;;;;19.53;51.14;97074.94;5011855;28;20213;-25
2024/03/12 03:55:07;;;;;;;1.57;1.47;;;;;;;19.55;50.73;97080.97;5011557;28;20198;-25
2024/03/12 03:57:33;;;;;;;2.03;1.67;;;;;;;19.54;50.77;97085.19;5007804;28;20257;-31
2024/03/12 04:00:01;;;;;;;1.80;1.70;;;;;;;19.54;50.69;97087.72;5004341;28;20622;-26
2024/03/12 04:02:28;;;;;;;1.40;1.30;;;;;;;19.55;50.68;97089.47;5013193;28;20766;-26
2024/03/12 04:04:55;;;;;;;1.50;1.40;;;;;;;19.55;50.67;97093.72;5015317;28;20292;-25
2024/03/12 04:07:23;;;;;;;1.97;1.77;;;;;;;19.53;50.74;97096.22;5011638;28;20198;-25
2024/03/12 04:09:50;;;;;;;1.53;1.30;;;;;;;19.54;50.74;97097.94;5012793;28;20826;-25
2024/03/12 04:12:17;;;;;;;1.60;1.50;;;;;;;19.54;50.64;97099.63;5012619;28;20206;-26
2024/03/12 04:14:44;;;;;;;1.40;1.30;;;;;;;19.54;50.67;97107.28;5015486;28;20238;-25
2024/03/12 04:17:10;;;;;;;1.50;1.40;;;;;;;19.55;50.55;97109.00;5012624;28;20222;-25
2024/03/12 04:19:37;;;;;;;1.50;1.40;;;;;;;19.55;50.60;97111.53;5012517;28;20198;-26
2024/03/12 04:22:05;;;;;;;1.60;1.50;;;;;;;19.55;50.62;97114.97;5012368;28;20313;-25
2024/03/12 04:24:32;;;;;;;1.60;1.50;;;;;;;19.56;50.44;97123.47;5014442;28;20285;-25
2024/03/12 04:26:59;;;;;;;1.40;1.30;;;;;;;19.56;50.97;97126.00;5012126;28;20209;-25
2024/03/12 04:29:26;;;;;;;1.50;1.40;;;;;;;19.56;50.85;97124.34;5014361;28;20806;-26
2024/03/12 04:31:55;;;;;;;1.50;1.40;;;;;;;19.56;50.79;97131.97;5014567;28;20227;-25
2024/03/12 04:34:21;;;;;;;2.63;1.60;;;;;;;19.55;50.80;97131.94;5010980;28;20206;-25
2024/03/12 04:36:48;;;;;;;1.60;1.50;;;;;;;19.55;50.84;97132.81;5009045;28;20280;-25
2024/03/12 04:39:33;;;;;;;1.13;1.13;;;;;;;19.54;50.65;97140.41;5013755;28;20653;-25
2024/03/12 04:42:02;;;;;;;1.60;1.50;;;;;;;19.55;50.60;97148.09;5008311;28;20301;-27
2024/03/12 04:44:29;;;;;;;1.60;1.50;;;;;;;19.55;50.75;97150.66;5013210;28;20202;-26
2024/03/12 04:46:55;;;;;;;1.53;1.43;;;;;;;19.56;50.80;97148.94;5007323;28;20198;-25
2024/03/12 04:49:22;;;;;;;1.40;1.30;;;;;;;19.51;50.86;97146.25;5014559;28;20206;-25
2024/03/12 04:51:50;;;;;;;1.50;1.40;;;;;;;19.54;50.71;97156.56;5013260;28;20230;-26
2024/03/12 04:54:18;;;;;;;1.60;1.50;;;;;;;19.55;50.65;97154.88;5009256;28;20225;-26
2024/03/12 04:56:50;;;;;;;1.50;1.40;;;;;;;19.53;50.82;97159.94;5007659;28;20262;-26
2024/03/12 04:59:17;;;;;;;1.50;1.40;;;;;;;19.55;50.73;97160.84;5007668;28;20209;-25
2024/03/12 05:01:48;;;;;;;1.60;1.50;;;;;;;19.56;50.81;97174.44;5012721;28;20266;-26
2024/03/12 05:04:16;;;;;;;1.57;1.47;;;;;;;19.57;51.08;97179.59;5010925;28;20602;-25
2024/03/12 05:06:49;;;;;;;2.10;1.73;;;;;;;19.54;50.95;97176.09;5011560;28;20620;-29
2024/03/12 05:09:17;;;;;;;1.53;1.43;;;;;;;19.51;50.83;97173.44;5008063;28;20626;-27
2024/03/12 05:11:50;;;;;;;1.63;1.50;;;;;;;19.57;50.90;97189.78;5008184;28;20636;-30
2024/03/12 05:14:17;;;;;;;2.07;1.40;;;;;;;19.56;50.80;97193.16;5014248;28;20206;-25
2024/03/12 05:16:43;;;;;;;1.70;1.60;;;;;;;19.57;50.73;97197.44;5009001;28;20218;-26
2024/03/12 05:19:10;;;;;;;1.50;1.37;;;;;;;19.55;50.65;97198.22;5006325;28;20233;-25
2024/03/12 05:21:38;;;;;;;1.50;1.40;;;;;;;19.57;50.75;97199.13;5013545;28;20218;-25
2024/03/12 05:24:05;;;;;;;1.50;1.40;;;;;;;19.56;50.72;97202.47;5014556;28;20198;-25
2024/03/12 05:26:32;;;;;;;1.37;1.27;;;;;;;19.57;50.82;97204.22;5008306;28;20206;-26
2024/03/12 05:28:59;;;;;;;1.87;1.50;;;;;;;19.58;50.74;97198.31;5013667;28;20202;-27
2024/03/12 05:31:38;;;;;;;1.50;1.40;;;;;;;19.59;50.67;97200.91;5004227;28;20226;-27
2024/03/12 05:34:16;;;;;;;1.70;1.60;;;;;;;19.58;50.81;97205.94;5006420;28;20205;-25
2024/03/12 05:36:48;;;;;;;1.50;1.40;;;;;;;19.60;50.73;97211.97;5010167;28;20218;-25
2024/03/12 05:39:18;;;;;;;1.77;1.67;;;;;;;19.61;50.92;97208.59;5011817;28;20238;-25
2024/03/12 05:50:00;;;;;;;1.50;1.40;;;;;;;19.62;50.88;97217.97;5011824;28;20202;-25
2024/03/12 05:52:28;;;;;;;1.50;1.40;;;;;;;19.64;50.84;97224.00;5003154;28;20249;-28
2024/03/12 05:54:55;;;;;;;1.60;1.50;;;;;;;19.62;50.88;97229.03;5011254;28;20202;-25
2024/03/12 05:57:22;;;;;;;1.50;1.40;;;;;;;19.63;50.81;97229.91;5012524;28;20222;-26
2024/03/12 05:59:49;;;;;;;1.73;1.63;;;;;;;19.62;50.74;97236.69;5005624;28;20206;-27
2024/03/12 06:02:16;;;;;;;1.97;1.70;;;;;;;19.64;50.68;97237.63;5010518;28;20232;-28
2024/03/12 06:04:43;;;;;;;1.70;1.60;;;;;;;19.63;50.20;97240.94;5012577;28;20579;-26
2024/03/12 06:07:12;;;;;;;1.60;1.50;;;;;;;19.63;50.74;97245.22;5009730;28;20194;-26
2024/03/12 06:09:39;;;;;;;2.70;1.70;;;;;;;19.65;50.71;97248.66;5010253;28;20225;-25
2024/03/12 06:12:06;;;;;;;1.70;1.60;;;;;;;19.64;50.59;97257.13;5012899;28;20577;-27
2024/03/12 06:14:34;;;;;;;1.90;1.40;;;;;;;19.63;50.73;97257.94;5008120;28;20277;-25
2024/03/12 06:17:00;;;;;;;4.93;1.50;;;;;;;19.64;50.69;97257.13;5010978;28;20226;-25
2024/03/12 06:19:27;;;;;;;1.63;1.47;;;;;;;19.65;50.67;97266.50;5011535;28;20213;-25
2024/03/12 06:21:54;;;;;;;1.70;1.60;;;;;;;19.64;50.67;97264.78;5007014;28;20751;-29
2024/03/12 06:24:20;;;;;;;2.20;1.63;;;;;;;19.62;50.61;97264.72;5011131;28;20638;-26
2024/03/12 06:26:48;;;;;;;2.90;1.80;;;;;;;19.64;50.68;97272.41;5007136;28;20191;-25
2024/03/12 06:29:16;;;;;;;4.73;1.93;;;;;;;19.67;50.10;97277.63;5011864;28;20202;-26
2024/03/12 06:31:43;;;;;;;2.30;1.60;;;;;;;19.65;50.50;97282.66;5010790;28;20226;-25
2024/03/12 06:34:10;;;;;;;1.70;1.60;;;;;;;19.66;50.49;97288.66;5012742;28;20286;-27
2024/03/12 06:36:38;;;;;;;3.07;1.63;;;;;;;19.65;50.58;97276.69;5007901;28;20226;-25
2024/03/12 06:39:05;;;;;;;1.80;1.70;;;;;;;19.63;50.56;97279.19;5012454;28;20285;-25
2024/03/12 06:41:32;;;;;;;2.63;1.90;;;;;;;19.63;50.42;97291.09;5010963;28;20317;-25
2024/03/12 06:43:59;;;;;;;2.20;2.00;;;;;;;19.61;49.60;97288.50;5011621;28;20700;-25
2024/03/12 06:46:26;;;;;;;2.73;1.73;;;;;;;19.62;49.89;97295.31;5012884;28;20209;-25
2024/03/12 06:48:53;;;;;;;3.53;1.93;;;;;;;19.62;49.97;97304.63;5006058;28;20225;-26
2024/03/12 06:51:20;;;;;;;4.73;2.50;;;;;;;19.61;49.39;97301.25;5009438;28;20223;-25
2024/03/12 06:53:46;;;;;;;3.00;2.47;;;;;;;19.60;48.71;97299.47;5013418;28;20206;-25
2024/03/12 06:56:16;;;;;;;4.43;3.10;;;;;;;19.59;48.50;97300.31;5013180;28;20260;-25
2024/03/12 06:58:44;;;;;;;4.40;2.90;;;;;;;19.59;48.31;97305.41;5008424;28;20307;-25
2024/03/12 07:01:13;;;;;;;4.10;3.37;;;;;;;19.59;47.14;97304.53;5012205;28;20383;-28
2024/03/12 07:03:42;;;;;;;3.97;3.03;;;;;;;19.56;47.34;97300.22;5012718;28;20678;-25
2024/03/12 07:06:09;;;;;;;4.13;3.10;;;;;;;19.58;47.85;97305.34;5009563;28;20305;-25
2024/03/12 07:08:39;;;;;;;4.17;3.33;;;;;;;19.56;47.77;97301.88;5012531;28;20673;-26
2024/03/12 07:11:07;;;;;;;3.53;2.93;;;;;;;19.56;48.21;97304.44;5026247;28;20225;-25
2024/03/12 07:13:34;;;;;;;3.73;3.23;;;;;;;19.57;48.68;97303.63;5011739;28;20673;-25
2024/03/12 07:16:03;;;;;;;3.33;3.03;;;;;;;19.56;45.30;97315.50;5010433;28;20206;-25
2024/03/12 07:18:29;;;;;;;6.37;3.97;;;;;;;19.51;44.51;97300.88;5012453;28;20229;-25
2024/03/12 07:20:56;;;;;;;6.67;4.43;;;;;;;19.47;43.58;97299.91;5011546;28;20257;-25
2024/03/12 07:23:22;;;;;;;6.13;4.37;;;;;;;19.46;43.91;97310.03;5009144;28;20229;-26
2024/03/12 07:25:49;;;;;;;6.73;4.57;;;;;;;19.45;44.09;97311.72;5012931;28;20217;-25
2024/03/12 07:28:16;;;;;;;6.00;4.47;;;;;;;19.45;44.26;97311.72;5012144;28;20198;-25
2024/03/12 07:30:49;;;;;;;6.57;4.20;;;;;;;19.46;44.04;97310.03;5011648;28;20828;-25
2024/03/12 07:33:16;;;;;;;5.07;4.57;;;;;;;19.44;44.92;97312.53;5009271;28;20689;-25
2024/03/12 07:35:43;;;;;;;4.93;4.43;;;;;;;19.44;45.74;97309.13;5012015;28;20665;-25
2024/03/12 07:38:10;;;;;;;6.20;4.60;;;;;;;19.45;45.82;97308.31;5011578;28;20222;-25
2024/03/12 07:40:38;;;;;;;4.57;4.07;;;;;;;19.45;46.18;97310.88;5010104;28;20227;-25
2024/03/12 07:43:05;;;;;;;6.70;4.30;;;;;;;19.44;46.46;97312.53;5010129;28;20194;-25
2024/03/12 07:45:32;;;;;;;3.93;3.47;;;;;;;19.45;46.64;97318.50;5012088;28;20233;-26
2024/03/12 07:47:59;;;;;;;4.10;3.70;;;;;;;19.45;47.21;97315.97;5011474;28;20619;-25
2024/03/12 07:50:30;;;;;;;4.77;4.20;;;;;;;19.45;47.04;97306.63;5009234;28;20218;-25
2024/03/12 07:52:57;;;;;;;4.63;3.87;;;;;;;19.45;47.22;97314.25;5009543;28;20727;-30
2024/03/12 07:55:25;;;;;;;4.10;3.70;;;;;;;19.40;47.21;97303.06;5011952;28;20583;-26
2024/03/12 07:57:51;;;;;;;4.93;3.43;;;;;;;19.49;47.64;97320.34;5008835;28;20265;-26
2024/03/12 08:00:19;;;;;;;4.93;3.77;;;;;;;19.50;47.43;97325.50;5009015;28;20269;-28
2024/03/12 08:02:45;;;;;;;7.07;3.80;;;;;;;19.51;47.44;97326.38;5007391;28;20202;-25
2024/03/12 08:05:12;;;;;;;4.70;3.63;;;;;;;19.51;47.63;97327.22;5011910;28;20425;-26
2024/03/12 08:07:39;;;;;;;4.30;3.33;;;;;;;19.53;47.06;97332.38;5011986;28;20305;-25
2024/03/12 08:10:08;;;;;;;4.37;3.63;;;;;;;19.53;47.54;97333.25;5008620;28;20203;-25
2024/03/12 08:12:39;;;;;;;8.93;3.47;;;;;;;19.54;47.89;97329.03;5004716;28;20205;-25
2024/03/12 08:15:07;;;;;;;3.80;3.10;;;;;;;19.53;47.98;97327.28;5011880;28;20621;-25
2024/03/12 08:17:33;;;;;;;3.60;3.30;;;;;;;19.57;47.88;97339.31;5010402;28;20308;-25
2024/03/12 08:20:00;;;;;;;3.63;3.10;;;;;;;19.57;48.02;97341.88;5004889;28;20198;-29
2024/03/12 08:22:27;;;;;;;3.63;3.00;;;;;;;19.57;48.15;97347.81;5011720;28;20256;-25
2024/03/12 08:24:54;;;;;;;2.80;2.50;;;;;;;19.57;48.25;97349.53;5011907;28;20203;-25
2024/03/12 08:27:21;;;;;;;3.20;2.60;;;;;;;19.54;48.32;97342.63;5009279;28;20202;-25
2024/03/12 08:29:49;;;;;;;6.20;2.93;;;;;;;19.56;48.19;97346.09;5010490;28;20253;-25
2024/03/12 08:32:15;;;;;;;3.80;3.07;;;;;;;19.57;48.17;97352.91;5025319;28;20209;-25
2024/03/12 08:34:42;;;;;;;3.00;2.70;;;;;;;19.58;48.07;97364.00;5001770;28;20670;-25
2024/03/12 08:37:11;;;;;;;3.17;2.87;;;;;;;19.58;48.55;97353.78;5007500;28;20616;-25
2024/03/12 08:39:38;;;;;;;3.50;2.93;;;;;;;19.59;48.86;97355.50;5006531;28;20205;-25
2024/03/12 08:42:07;;;;;;;2.90;2.60;;;;;;;19.59;48.50;97360.59;5005469;28;20215;-25
2024/03/12 08:44:34;;;;;;;2.93;2.63;;;;;;;19.60;48.54;97364.91;5009224;28;20256;-26
2024/03/12 08:47:00;;;;;;;4.43;2.80;;;;;;;19.59;48.52;97368.25;5011386;28;20207;-25
2024/03/12 08:49:27;;;;;;;5.93;2.63;;;;;;;19.58;48.79;97362.31;5007582;28;20732;-25
2024/03/12 08:51:54;;;;;;;2.73;2.50;;;;;;;19.61;48.79;97374.28;5012826;28;20241;-25
2024/03/12 08:54:21;;;;;;;2.87;2.57;;;;;;;19.59;49.11;97370.81;5015136;28;20669;-25
2024/03/12 08:56:48;;;;;;;2.97;2.63;;;;;;;19.60;48.66;97373.41;5014711;28;20292;-27
2024/03/12 08:59:15;;;;;;;3.43;2.57;;;;;;;19.60;48.88;97370.00;5014965;28;20625;-25
2024/03/12 09:01:43;;;;;;;3.20;2.70;;;;;;;19.60;48.94;97373.41;5012097;28;20226;-26
2024/03/12 09:04:10;;;;;;;3.17;2.50;;;;;;;19.62;48.90;97376.00;5009588;28;20778;-25
2024/03/12 09:06:37;;;;;;;2.57;2.37;;;;;;;19.63;48.95;97372.66;5007138;28;20202;-25
2024/03/12 09:09:05;;;;;;;3.00;2.20;;;;;;;19.62;48.76;97369.25;5008926;28;20278;-29
2024/03/12 09:11:31;;;;;;;2.80;2.40;;;;;;;19.61;48.81;97370.06;5006630;28;20701;-25
2024/03/12 09:13:59;;;;;;;4.67;2.73;;;;;;;19.62;48.55;97373.47;5014452;28;20206;-25
2024/03/12 09:16:26;;;;;;;2.37;2.17;;;;;;;19.62;49.03;97378.56;5011220;28;20206;-25
2024/03/12 09:18:53;;;;;;;3.50;2.47;;;;;;;19.61;49.05;97377.72;5007864;28;20218;-25
2024/03/12 09:21:20;;;;;;;3.13;2.50;;;;;;;19.61;48.94;97384.47;5011177;28;20254;-25
2024/03/12 09:23:47;;;;;;;2.33;2.13;;;;;;;19.60;49.11;97386.16;5010626;28;20261;-25
2024/03/12 09:26:27;;;;;;;3.30;2.50;;;;;;;19.60;49.17;97388.72;5004745;28;20209;-25
2024/03/12 09:28:55;;;;;;;2.30;1.97;;;;;;;19.60;49.19;97391.25;5029437;28;20711;-25
2024/03/12 09:31:21;;;;;;;4.63;2.27;;;;;;;19.60;49.22;97392.97;5012321;28;20284;-26
2024/03/12 09:33:48;;;;;;;2.60;2.23;;;;;;;19.62;48.86;97401.50;5008624;28;20281;-25
2024/03/12 09:36:15;;;;;;;2.93;2.10;;;;;;;19.61;49.18;97392.13;5007266;28;20205;-25
2024/03/12 09:38:43;;;;;;;2.87;2.20;;;;;;;19.62;48.95;97392.19;5014308;28;20261;-27
2024/03/12 09:41:12;;;;;;;2.83;2.30;;;;;;;19.61;49.12;97387.03;5006086;28;20309;-25
2024/03/12 09:43:39;;;;;;;3.10;2.03;;;;;;;19.60;49.11;97381.06;4996106;28;20210;-25
2024/03/12 09:46:05;;;;;;;2.07;1.97;;;;;;;19.63;49.14;97386.25;4996393;28;20210;-25
2024/03/12 09:48:32;;;;;;;2.37;2.17;;;;;;;19.63;49.12;97387.97;5008217;28;20202;-27
2024/03/12 09:50:59;;;;;;;2.47;2.10;;;;;;;19.58;49.12;97390.34;5011377;28;20650;-25
2024/03/12 09:53:27;;;;;;;2.93;1.80;;;;;;;19.60;49.15;97390.41;5021359;28;20677;-27
2024/03/12 09:55:54;;;;;;;2.20;2.00;;;;;;;19.61;49.14;97387.03;5004005;28;20208;-25
2024/03/12 09:58:22;;;;;;;2.00;1.90;;;;;;;19.61;49.19;97387.03;5009768;28;20293;-25
2024/03/12 10:00:48;;;;;;;1.90;1.80;;;;;;;19.60;49.27;97386.16;5005941;28;20740;-25
2024/03/12 10:03:18;;;;;;;2.23;1.90;;;;;;;19.60;49.22;97385.31;5005423;28;20213;-25
2024/03/12 10:05:46;;;;;;;2.07;1.87;;;;;;;19.60;49.12;97382.75;5009978;28;20645;-26
2024/03/12 10:08:14;;;;;;;2.10;1.80;;;;;;;19.60;49.18;97391.25;5013090;28;20202;-25
2024/03/12 10:10:44;;;;;;;2.03;1.83;;;;;;;19.62;49.20;97386.22;5002900;28;20243;-25
2024/03/12 10:13:17;;;;;;;2.00;1.80;;;;;;;19.62;49.13;97391.31;5011168;28;20716;-29
2024/03/12 10:15:58;;;;;;;2.07;1.97;;;;;;;19.63;49.27;97390.50;5004850;28;20199;-25
2024/03/12 10:18:26;;;;;;;1.90;1.80;;;;;;;19.61;49.13;97390.47;5006906;28;20233;-25
2024/03/12 10:20:55;;;;;;;2.00;1.90;;;;;;;19.54;49.31;97380.84;5006587;28;20524;-25
2024/03/12 10:23:25;;;;;;;2.10;1.90;;;;;;;19.61;49.38;97387.91;5007452;28;20217;-26
2024/03/12 10:25:53;;;;;;;2.20;1.90;;;;;;;19.61;49.38;97393.00;5010879;28;20257;-28
2024/03/12 10:28:24;;;;;;;1.80;1.70;;;;;;;19.61;49.37;97393.00;5002350;28;20636;-25
2024/03/12 10:30:51;;;;;;;2.57;1.90;;;;;;;19.55;49.25;97389.38;5011279;28;20602;-25
2024/03/12 10:33:20;;;;;;;2.10;1.90;;;;;;;19.58;49.30;97390.34;5005988;28;20214;-26
2024/03/12 10:35:47;;;;;;;1.83;1.70;;;;;;;19.59;49.45;97393.75;5012672;28;20643;-25
2024/03/12 10:38:24;;;;;;;1.87;1.77;;;;;;;19.60;49.32;97392.97;5007977;28;20250;-26
2024/03/12 10:40:51;;;;;;;1.90;1.80;;;;;;;19.58;49.41;97392.91;5005365;28;20224;-25
2024/03/12 10:43:24;;;;;;;2.87;1.70;;;;;;;19.60;49.38;97393.81;5012902;28;20198;-26
2024/03/12 10:45:51;;;;;;;1.73;1.63;;;;;;;19.61;49.17;97394.69;5008981;28;20194;-25
2024/03/12 10:48:18;;;;;;;1.90;1.60;;;;;;;19.62;49.39;97393.84;5011494;28;20304;-25
2024/03/12 10:50:45;;;;;;;2.10;1.90;;;;;;;19.62;49.09;97394.72;5011604;28;20301;-27
2024/03/12 10:53:12;;;;;;;2.27;1.90;;;;;;;19.61;49.16;97395.56;5011139;28;20281;-25
2024/03/12 10:55:38;;;;;;;1.80;1.70;;;;;;;19.63;49.32;97390.50;5027029;28;20638;-25
2024/03/12 10:58:08;;;;;;;2.63;2.30;;;;;;;19.59;49.21;97386.97;5008052;28;20218;-26
2024/03/12 11:00:39;;;;;;;2.03;1.83;;;;;;;19.63;49.41;97385.41;5004843;28;20314;-25
2024/03/12 11:03:09;;;;;;;2.10;1.70;;;;;;;19.62;49.29;97389.63;5006335;28;20282;-25
2024/03/12 11:05:38;;;;;;;2.20;1.87;;;;;;;19.64;49.31;97385.47;5010952;28;20241;-25
2024/03/12 11:08:07;;;;;;;1.63;1.53;;;;;;;19.64;49.44;97384.59;5012192;28;20199;-26
2024/03/12 11:10:34;;;;;;;1.70;1.60;;;;;;;19.64;49.24;97388.00;5010790;28;20221;-25
2024/03/12 11:13:01;;;;;;;1.60;1.50;;;;;;;19.65;49.40;97389.75;5008918;28;20229;-25
2024/03/12 11:15:28;;;;;;;1.50;1.40;;;;;;;19.64;49.34;97392.25;5025688;28;20198;-26
2024/03/12 11:17:55;;;;;;;2.67;1.63;;;;;;;19.60;49.29;97377.66;5003367;28;20624;-25
2024/03/12 11:20:24;;;;;;;2.00;1.80;;;;;;;19.52;49.29;97362.09;4986642;28;20254;-26
2024/03/12 11:22:56;;;;;;;1.70;1.50;;;;;;;19.65;49.33;97386.31;5005527;28;20692;-25
2024/03/12 11:25:38;;;;;;;1.77;1.67;;;;;;;19.66;49.22;97395.72;5010778;28;20294;-26
2024/03/12 11:28:23;;;;;;;2.00;1.80;;;;;;;19.64;49.31;97382.91;5004626;28;20190;-25
2024/03/12 11:31:04;;;;;;;1.67;1.57;;;;;;;19.65;49.35;97384.63;5001691;28;20301;-25
2024/03/12 11:33:37;;;;;;;2.03;1.80;;;;;;;19.65;49.33;97378.66;5004978;28;20281;-25
2024/03/12 11:36:32;;;;;;;2.03;1.67;;;;;;;19.65;49.27;97388.88;5010411;28;20199;-25
2024/03/12 11:39:08;;;;;;;2.00;1.70;;;;;;;19.65;49.41;97386.31;5010898;28;20222;-26
2024/03/12 11:42:10;;;;;;;1.73;1.63;;;;;;;19.66;49.25;97385.53;5008646;28;20229;-25
2024/03/12 11:44:54;;;;;;;1.60;1.50;;;;;;;19.62;49.27;97371.78;4950459;28;20204;-26
2024/03/12 11:47:34;;;;;;;1.70;1.60;;;;;;;19.65;49.36;97378.66;5006471;28;20616;-25